sensor_id;sensor_type;location;lat;lon;timestamp;P1;durP1;ratioP1;P2;durP2;ratioP2
68655;SDS011;55638;51.122;13.606;2023-01-30T00:00:13;9.35;;;6.85;;
68655;SDS011;55638;51.122;13.606;2023-01-30T00:01:45;11.15;;;7.38;;
68655;SDS011;55638;51.122;13.606;2023-01-30T00:03:18;9.88;;;6.72;;
68655;SDS011;55638;51.122;13.606;2023-01-30T00:04:50;9.98;;;7.20;;
68655;SDS011;55638;51.122;13.606;2023-01-30T00:06:22;10.13;;;7.38;;
68655;SDS011;55638;51.122;13.606;2023-01-30T00:07:54;9.77;;;7.50;;
68655;SDS011;55638;51.122;13.606;2023-01-30T00:09:26;11.48;;;8.10;;
68655;SDS011;55638;51.122;13.606;2023-01-30T00:11:02;9.23;;;7.10;;
68655;SDS011;55638;51.122;13.606;2023-01-30T00:12:35;8.73;;;6.43;;
68655;SDS011;55638;51.122;13.606;2023-01-30T00:14:07;9.90;;;7.05;;
68655;SDS011;55638;51.122;13.606;2023-01-30T00:15:39;10.27;;;7.35;;
68655;SDS011;55638;51.122;13.606;2023-01-30T00:17:11;10.27;;;7.05;;
68655;SDS011;55638;51.122;13.606;2023-01-30T00:18:43;11.13;;;7.45;;
68655;SDS011;55638;51.122;13.606;2023-01-30T00:20:15;9.52;;;7.28;;
68655;SDS011;55638;51.122;13.606;2023-01-30T00:21:47;9.68;;;6.88;;
68655;SDS011;55638;51.122;13.606;2023-01-30T00:23:19;9.63;;;6.82;;
68655;SDS011;55638;51.122;13.606;2023-01-30T00:24:51;10.18;;;7.70;;
68655;SDS011;55638;51.122;13.606;2023-01-30T00:26:23;10.73;;;7.90;;
68655;SDS011;55638;51.122;13.606;2023-01-30T00:27:55;11.85;;;8.10;;
68655;SDS011;55638;51.122;13.606;2023-01-30T00:29:27;11.77;;;7.28;;
68655;SDS011;55638;51.122;13.606;2023-01-30T00:30:59;10.80;;;7.18;;
68655;SDS011;55638;51.122;13.606;2023-01-30T00:32:30;11.63;;;8.05;;
68655;SDS011;55638;51.122;13.606;2023-01-30T00:34:02;10.75;;;7.60;;
68655;SDS011;55638;51.122;13.606;2023-01-30T00:35:34;9.60;;;7.43;;
68655;SDS011;55638;51.122;13.606;2023-01-30T00:37:06;10.00;;;7.22;;
68655;SDS011;55638;51.122;13.606;2023-01-30T00:38:39;10.95;;;7.72;;
68655;SDS011;55638;51.122;13.606;2023-01-30T00:40:11;9.35;;;7.18;;
68655;SDS011;55638;51.122;13.606;2023-01-30T00:41:42;9.32;;;7.22;;
68655;SDS011;55638;51.122;13.606;2023-01-30T00:43:33;10.75;;;7.53;;
68655;SDS011;55638;51.122;13.606;2023-01-30T00:45:23;10.48;;;7.38;;
68655;SDS011;55638;51.122;13.606;2023-01-30T00:47:14;9.27;;;6.72;;
68655;SDS011;55638;51.122;13.606;2023-01-30T00:48:46;9.60;;;7.10;;
68655;SDS011;55638;51.122;13.606;2023-01-30T00:50:18;8.98;;;7.00;;
68655;SDS011;55638;51.122;13.606;2023-01-30T00:51:50;11.25;;;7.80;;
68655;SDS011;55638;51.122;13.606;2023-01-30T00:53:22;9.15;;;6.75;;
68655;SDS011;55638;51.122;13.606;2023-01-30T00:54:54;9.10;;;7.15;;
68655;SDS011;55638;51.122;13.606;2023-01-30T00:56:26;8.98;;;6.88;;
68655;SDS011;55638;51.122;13.606;2023-01-30T00:57:58;8.90;;;6.88;;
68655;SDS011;55638;51.122;13.606;2023-01-30T00:59:29;9.45;;;7.10;;
68655;SDS011;55638;51.122;13.606;2023-01-30T01:01:02;10.68;;;7.35;;
68655;SDS011;55638;51.122;13.606;2023-01-30T01:02:34;10.45;;;8.25;;
68655;SDS011;55638;51.122;13.606;2023-01-30T01:04:06;10.27;;;7.43;;
68655;SDS011;55638;51.122;13.606;2023-01-30T01:05:39;8.65;;;6.65;;
68655;SDS011;55638;51.122;13.606;2023-01-30T01:07:11;9.45;;;7.20;;
68655;SDS011;55638;51.122;13.606;2023-01-30T01:08:44;10.38;;;7.10;;
68655;SDS011;55638;51.122;13.606;2023-01-30T01:10:16;9.40;;;7.30;;
68655;SDS011;55638;51.122;13.606;2023-01-30T01:11:48;9.50;;;6.55;;
68655;SDS011;55638;51.122;13.606;2023-01-30T01:13:20;9.32;;;6.95;;
68655;SDS011;55638;51.122;13.606;2023-01-30T01:14:51;9.07;;;6.82;;
68655;SDS011;55638;51.122;13.606;2023-01-30T01:16:24;9.88;;;7.15;;
68655;SDS011;55638;51.122;13.606;2023-01-30T01:17:58;10.35;;;7.28;;
68655;SDS011;55638;51.122;13.606;2023-01-30T01:19:30;8.95;;;6.63;;
68655;SDS011;55638;51.122;13.606;2023-01-30T01:21:03;10.23;;;7.45;;
68655;SDS011;55638;51.122;13.606;2023-01-30T01:22:34;10.43;;;6.97;;
68655;SDS011;55638;51.122;13.606;2023-01-30T01:24:08;9.95;;;6.78;;
68655;SDS011;55638;51.122;13.606;2023-01-30T01:25:44;9.88;;;6.72;;
68655;SDS011;55638;51.122;13.606;2023-01-30T01:27:15;9.65;;;7.05;;
68655;SDS011;55638;51.122;13.606;2023-01-30T01:28:47;9.52;;;7.25;;
68655;SDS011;55638;51.122;13.606;2023-01-30T01:30:19;10.77;;;7.93;;
68655;SDS011;55638;51.122;13.606;2023-01-30T01:31:51;10.75;;;7.65;;
68655;SDS011;55638;51.122;13.606;2023-01-30T01:33:25;12.93;;;8.23;;
68655;SDS011;55638;51.122;13.606;2023-01-30T01:34:58;11.02;;;7.57;;
68655;SDS011;55638;51.122;13.606;2023-01-30T01:36:30;10.90;;;7.35;;
68655;SDS011;55638;51.122;13.606;2023-01-30T01:39:55;10.73;;;7.18;;
68655;SDS011;55638;51.122;13.606;2023-01-30T01:41:45;8.90;;;6.60;;
68655;SDS011;55638;51.122;13.606;2023-01-30T01:43:18;9.75;;;6.90;;
68655;SDS011;55638;51.122;13.606;2023-01-30T01:44:59;10.30;;;6.90;;
68655;SDS011;55638;51.122;13.606;2023-01-30T01:48:15;10.25;;;6.78;;
68655;SDS011;55638;51.122;13.606;2023-01-30T01:49:52;8.35;;;6.60;;
68655;SDS011;55638;51.122;13.606;2023-01-30T01:53:01;10.02;;;6.78;;
68655;SDS011;55638;51.122;13.606;2023-01-30T01:54:43;8.43;;;6.38;;
68655;SDS011;55638;51.122;13.606;2023-01-30T01:56:20;9.35;;;7.13;;
68655;SDS011;55638;51.122;13.606;2023-01-30T01:57:55;9.23;;;6.93;;
68655;SDS011;55638;51.122;13.606;2023-01-30T01:59:40;9.57;;;7.00;;
68655;SDS011;55638;51.122;13.606;2023-01-30T02:01:19;9.57;;;6.93;;
68655;SDS011;55638;51.122;13.606;2023-01-30T02:02:59;10.00;;;7.60;;
68655;SDS011;55638;51.122;13.606;2023-01-30T02:04:37;10.48;;;7.40;;
68655;SDS011;55638;51.122;13.606;2023-01-30T02:06:32;9.75;;;7.20;;
68655;SDS011;55638;51.122;13.606;2023-01-30T02:08:09;10.63;;;7.32;;
68655;SDS011;55638;51.122;13.606;2023-01-30T02:09:44;10.68;;;7.60;;
68655;SDS011;55638;51.122;13.606;2023-01-30T02:11:29;10.52;;;7.65;;
68655;SDS011;55638;51.122;13.606;2023-01-30T02:13:08;10.15;;;7.68;;
68655;SDS011;55638;51.122;13.606;2023-01-30T02:14:40;10.75;;;7.57;;
68655;SDS011;55638;51.122;13.606;2023-01-30T02:16:12;11.10;;;6.90;;
68655;SDS011;55638;51.122;13.606;2023-01-30T02:17:44;10.38;;;7.78;;
68655;SDS011;55638;51.122;13.606;2023-01-30T02:19:25;8.30;;;6.68;;
68655;SDS011;55638;51.122;13.606;2023-01-30T02:25:09;10.35;;;7.03;;
68655;SDS011;55638;51.122;13.606;2023-01-30T02:29:29;10.88;;;7.65;;
68655;SDS011;55638;51.122;13.606;2023-01-30T02:38:12;11.30;;;7.85;;
68655;SDS011;55638;51.122;13.606;2023-01-30T02:41:53;9.65;;;7.07;;
68655;SDS011;55638;51.122;13.606;2023-01-30T02:43:55;9.07;;;6.38;;
68655;SDS011;55638;51.122;13.606;2023-01-30T02:45:43;10.90;;;7.40;;
68655;SDS011;55638;51.122;13.606;2023-01-30T02:49:39;9.15;;;6.32;;
68655;SDS011;55638;51.122;13.606;2023-01-30T02:51:19;9.23;;;6.57;;
68655;SDS011;55638;51.122;13.606;2023-01-30T02:52:54;11.20;;;7.38;;
68655;SDS011;55638;51.122;13.606;2023-01-30T02:54:28;9.80;;;7.05;;
68655;SDS011;55638;51.122;13.606;2023-01-30T02:56:00;11.02;;;7.35;;
68655;SDS011;55638;51.122;13.606;2023-01-30T02:57:32;10.35;;;7.10;;
68655;SDS011;55638;51.122;13.606;2023-01-30T02:59:05;11.27;;;7.57;;
68655;SDS011;55638;51.122;13.606;2023-01-30T03:00:46;10.05;;;6.68;;
68655;SDS011;55638;51.122;13.606;2023-01-30T03:04:25;11.10;;;7.68;;
68655;SDS011;55638;51.122;13.606;2023-01-30T03:06:12;9.30;;;6.90;;
68655;SDS011;55638;51.122;13.606;2023-01-30T03:11:31;10.65;;;7.10;;
68655;SDS011;55638;51.122;13.606;2023-01-30T03:17:00;8.60;;;6.25;;
68655;SDS011;55638;51.122;13.606;2023-01-30T03:18:35;9.57;;;6.60;;
68655;SDS011;55638;51.122;13.606;2023-01-30T03:20:07;9.07;;;6.60;;
68655;SDS011;55638;51.122;13.606;2023-01-30T03:21:41;9.27;;;6.65;;
68655;SDS011;55638;51.122;13.606;2023-01-30T03:23:15;7.78;;;5.90;;
68655;SDS011;55638;51.122;13.606;2023-01-30T03:24:48;8.88;;;6.50;;
68655;SDS011;55638;51.122;13.606;2023-01-30T03:26:22;8.38;;;6.35;;
68655;SDS011;55638;51.122;13.606;2023-01-30T03:28:00;9.10;;;6.15;;
68655;SDS011;55638;51.122;13.606;2023-01-30T03:29:34;8.48;;;6.40;;
68655;SDS011;55638;51.122;13.606;2023-01-30T03:31:06;8.10;;;5.85;;
68655;SDS011;55638;51.122;13.606;2023-01-30T03:32:39;7.95;;;6.13;;
68655;SDS011;55638;51.122;13.606;2023-01-30T03:34:11;8.38;;;6.20;;
68655;SDS011;55638;51.122;13.606;2023-01-30T03:35:43;9.00;;;6.43;;
68655;SDS011;55638;51.122;13.606;2023-01-30T03:37:16;7.72;;;5.78;;
68655;SDS011;55638;51.122;13.606;2023-01-30T03:38:49;8.10;;;5.55;;
68655;SDS011;55638;51.122;13.606;2023-01-30T03:40:22;8.07;;;5.68;;
68655;SDS011;55638;51.122;13.606;2023-01-30T03:41:54;8.00;;;5.45;;
68655;SDS011;55638;51.122;13.606;2023-01-30T03:43:27;8.15;;;5.85;;
68655;SDS011;55638;51.122;13.606;2023-01-30T03:44:59;10.30;;;6.68;;
68655;SDS011;55638;51.122;13.606;2023-01-30T03:46:30;7.57;;;5.57;;
68655;SDS011;55638;51.122;13.606;2023-01-30T03:48:02;7.78;;;5.90;;
68655;SDS011;55638;51.122;13.606;2023-01-30T03:49:35;7.63;;;5.50;;
68655;SDS011;55638;51.122;13.606;2023-01-30T03:51:07;8.70;;;6.25;;
68655;SDS011;55638;51.122;13.606;2023-01-30T03:52:39;7.93;;;5.65;;
68655;SDS011;55638;51.122;13.606;2023-01-30T03:54:15;7.80;;;5.75;;
68655;SDS011;55638;51.122;13.606;2023-01-30T03:55:47;6.95;;;5.47;;
68655;SDS011;55638;51.122;13.606;2023-01-30T03:57:20;6.78;;;5.15;;
68655;SDS011;55638;51.122;13.606;2023-01-30T03:58:52;7.43;;;5.70;;
68655;SDS011;55638;51.122;13.606;2023-01-30T04:00:32;8.32;;;5.78;;
68655;SDS011;55638;51.122;13.606;2023-01-30T04:02:05;7.75;;;5.78;;
68655;SDS011;55638;51.122;13.606;2023-01-30T04:03:38;8.60;;;6.03;;
68655;SDS011;55638;51.122;13.606;2023-01-30T04:05:10;7.88;;;6.13;;
68655;SDS011;55638;51.122;13.606;2023-01-30T04:06:45;7.38;;;5.65;;
68655;SDS011;55638;51.122;13.606;2023-01-30T04:08:17;8.07;;;6.18;;
68655;SDS011;55638;51.122;13.606;2023-01-30T04:09:50;8.02;;;6.05;;
68655;SDS011;55638;51.122;13.606;2023-01-30T04:11:23;9.45;;;6.45;;
68655;SDS011;55638;51.122;13.606;2023-01-30T04:12:55;8.43;;;5.90;;
68655;SDS011;55638;51.122;13.606;2023-01-30T04:14:28;7.18;;;5.70;;
68655;SDS011;55638;51.122;13.606;2023-01-30T04:16:27;7.30;;;5.45;;
68655;SDS011;55638;51.122;13.606;2023-01-30T04:18:01;8.75;;;6.20;;
68655;SDS011;55638;51.122;13.606;2023-01-30T04:19:33;6.63;;;5.72;;
68655;SDS011;55638;51.122;13.606;2023-01-30T04:21:05;7.88;;;5.68;;
68655;SDS011;55638;51.122;13.606;2023-01-30T04:22:41;8.25;;;6.07;;
68655;SDS011;55638;51.122;13.606;2023-01-30T04:24:13;7.65;;;5.95;;
68655;SDS011;55638;51.122;13.606;2023-01-30T04:25:45;6.75;;;5.22;;
68655;SDS011;55638;51.122;13.606;2023-01-30T04:27:19;7.53;;;5.38;;
68655;SDS011;55638;51.122;13.606;2023-01-30T04:29:10;7.80;;;5.65;;
68655;SDS011;55638;51.122;13.606;2023-01-30T04:30:43;9.40;;;6.78;;
68655;SDS011;55638;51.122;13.606;2023-01-30T04:32:33;9.25;;;6.05;;
68655;SDS011;55638;51.122;13.606;2023-01-30T04:34:05;8.25;;;5.57;;
68655;SDS011;55638;51.122;13.606;2023-01-30T04:35:38;8.10;;;5.68;;
68655;SDS011;55638;51.122;13.606;2023-01-30T04:37:10;7.72;;;5.60;;
68655;SDS011;55638;51.122;13.606;2023-01-30T04:38:43;8.95;;;6.03;;
68655;SDS011;55638;51.122;13.606;2023-01-30T04:40:14;8.23;;;5.97;;
68655;SDS011;55638;51.122;13.606;2023-01-30T04:41:47;8.90;;;6.65;;
68655;SDS011;55638;51.122;13.606;2023-01-30T04:43:19;8.35;;;6.35;;
68655;SDS011;55638;51.122;13.606;2023-01-30T04:45:15;8.23;;;5.80;;
68655;SDS011;55638;51.122;13.606;2023-01-30T04:46:48;7.75;;;5.65;;
68655;SDS011;55638;51.122;13.606;2023-01-30T04:48:20;9.13;;;6.22;;
68655;SDS011;55638;51.122;13.606;2023-01-30T04:49:54;8.38;;;5.88;;
68655;SDS011;55638;51.122;13.606;2023-01-30T04:51:26;8.07;;;5.85;;
68655;SDS011;55638;51.122;13.606;2023-01-30T04:52:57;7.93;;;5.82;;
68655;SDS011;55638;51.122;13.606;2023-01-30T04:54:29;7.72;;;6.15;;
68655;SDS011;55638;51.122;13.606;2023-01-30T04:56:01;9.57;;;7.13;;
68655;SDS011;55638;51.122;13.606;2023-01-30T04:57:33;8.52;;;6.95;;
68655;SDS011;55638;51.122;13.606;2023-01-30T04:59:05;7.78;;;5.93;;
68655;SDS011;55638;51.122;13.606;2023-01-30T05:00:41;8.10;;;5.78;;
68655;SDS011;55638;51.122;13.606;2023-01-30T05:02:13;7.53;;;6.10;;
68655;SDS011;55638;51.122;13.606;2023-01-30T05:03:48;7.10;;;5.57;;
68655;SDS011;55638;51.122;13.606;2023-01-30T05:05:26;7.97;;;6.05;;
68655;SDS011;55638;51.122;13.606;2023-01-30T05:06:58;8.32;;;6.20;;
68655;SDS011;55638;51.122;13.606;2023-01-30T05:08:30;9.27;;;6.82;;
68655;SDS011;55638;51.122;13.606;2023-01-30T05:10:01;8.07;;;6.45;;
68655;SDS011;55638;51.122;13.606;2023-01-30T05:11:33;8.60;;;6.90;;
68655;SDS011;55638;51.122;13.606;2023-01-30T05:13:05;9.25;;;6.88;;
68655;SDS011;55638;51.122;13.606;2023-01-30T05:14:37;9.35;;;7.00;;
68655;SDS011;55638;51.122;13.606;2023-01-30T05:16:12;9.27;;;7.22;;
68655;SDS011;55638;51.122;13.606;2023-01-30T05:17:45;9.23;;;6.43;;
68655;SDS011;55638;51.122;13.606;2023-01-30T05:19:17;8.65;;;6.60;;
68655;SDS011;55638;51.122;13.606;2023-01-30T05:20:49;8.65;;;7.22;;
68655;SDS011;55638;51.122;13.606;2023-01-30T05:22:21;8.85;;;6.72;;
68655;SDS011;55638;51.122;13.606;2023-01-30T05:23:53;8.02;;;6.38;;
68655;SDS011;55638;51.122;13.606;2023-01-30T05:25:26;9.30;;;6.93;;
68655;SDS011;55638;51.122;13.606;2023-01-30T05:26:57;9.70;;;6.93;;
68655;SDS011;55638;51.122;13.606;2023-01-30T05:28:29;8.63;;;6.78;;
68655;SDS011;55638;51.122;13.606;2023-01-30T05:30:02;8.25;;;6.45;;
68655;SDS011;55638;51.122;13.606;2023-01-30T05:31:34;9.35;;;6.97;;
68655;SDS011;55638;51.122;13.606;2023-01-30T05:33:06;8.88;;;6.50;;
68655;SDS011;55638;51.122;13.606;2023-01-30T05:34:37;8.80;;;6.47;;
68655;SDS011;55638;51.122;13.606;2023-01-30T05:36:12;8.68;;;6.95;;
68655;SDS011;55638;51.122;13.606;2023-01-30T05:37:48;9.88;;;7.13;;
68655;SDS011;55638;51.122;13.606;2023-01-30T05:39:21;9.30;;;6.47;;
68655;SDS011;55638;51.122;13.606;2023-01-30T05:41:03;8.15;;;6.40;;
68655;SDS011;55638;51.122;13.606;2023-01-30T05:42:36;8.48;;;6.25;;
68655;SDS011;55638;51.122;13.606;2023-01-30T05:44:08;8.10;;;6.50;;
68655;SDS011;55638;51.122;13.606;2023-01-30T05:45:42;8.70;;;7.00;;
68655;SDS011;55638;51.122;13.606;2023-01-30T05:47:14;9.15;;;6.65;;
68655;SDS011;55638;51.122;13.606;2023-01-30T05:48:46;9.52;;;6.47;;
68655;SDS011;55638;51.122;13.606;2023-01-30T05:50:18;9.18;;;6.75;;
68655;SDS011;55638;51.122;13.606;2023-01-30T05:51:50;8.40;;;5.60;;
68655;SDS011;55638;51.122;13.606;2023-01-30T05:53:22;9.85;;;7.20;;
68655;SDS011;55638;51.122;13.606;2023-01-30T05:54:55;7.50;;;5.80;;
68655;SDS011;55638;51.122;13.606;2023-01-30T05:56:27;8.07;;;6.22;;
68655;SDS011;55638;51.122;13.606;2023-01-30T05:58:00;8.45;;;6.18;;
68655;SDS011;55638;51.122;13.606;2023-01-30T05:59:32;8.95;;;6.40;;
68655;SDS011;55638;51.122;13.606;2023-01-30T06:01:05;9.63;;;6.82;;
68655;SDS011;55638;51.122;13.606;2023-01-30T06:02:41;7.85;;;6.22;;
68655;SDS011;55638;51.122;13.606;2023-01-30T06:04:13;8.57;;;6.43;;
68655;SDS011;55638;51.122;13.606;2023-01-30T06:05:45;9.00;;;6.28;;
68655;SDS011;55638;51.122;13.606;2023-01-30T06:07:17;8.27;;;6.50;;
68655;SDS011;55638;51.122;13.606;2023-01-30T06:08:52;7.82;;;5.93;;
68655;SDS011;55638;51.122;13.606;2023-01-30T06:10:24;10.25;;;6.38;;
68655;SDS011;55638;51.122;13.606;2023-01-30T06:11:56;7.20;;;5.80;;
68655;SDS011;55638;51.122;13.606;2023-01-30T06:13:28;7.40;;;6.22;;
68655;SDS011;55638;51.122;13.606;2023-01-30T06:15:00;7.95;;;6.78;;
68655;SDS011;55638;51.122;13.606;2023-01-30T06:16:31;8.57;;;6.88;;
68655;SDS011;55638;51.122;13.606;2023-01-30T06:18:03;7.32;;;6.07;;
68655;SDS011;55638;51.122;13.606;2023-01-30T06:19:35;8.20;;;6.82;;
68655;SDS011;55638;51.122;13.606;2023-01-30T06:21:07;7.25;;;6.55;;
68655;SDS011;55638;51.122;13.606;2023-01-30T06:22:40;8.73;;;6.72;;
68655;SDS011;55638;51.122;13.606;2023-01-30T06:24:11;7.35;;;6.03;;
68655;SDS011;55638;51.122;13.606;2023-01-30T06:25:46;7.30;;;6.20;;
68655;SDS011;55638;51.122;13.606;2023-01-30T06:27:19;8.45;;;6.20;;
68655;SDS011;55638;51.122;13.606;2023-01-30T06:28:51;7.55;;;6.25;;
68655;SDS011;55638;51.122;13.606;2023-01-30T06:30:22;8.30;;;6.65;;
68655;SDS011;55638;51.122;13.606;2023-01-30T06:31:54;7.78;;;6.20;;
68655;SDS011;55638;51.122;13.606;2023-01-30T06:33:26;8.65;;;6.30;;
68655;SDS011;55638;51.122;13.606;2023-01-30T06:34:58;7.68;;;6.15;;
68655;SDS011;55638;51.122;13.606;2023-01-30T06:36:30;6.80;;;5.85;;
68655;SDS011;55638;51.122;13.606;2023-01-30T06:38:02;6.88;;;5.95;;
68655;SDS011;55638;51.122;13.606;2023-01-30T06:39:34;7.57;;;5.82;;
68655;SDS011;55638;51.122;13.606;2023-01-30T06:41:06;7.60;;;6.03;;
68655;SDS011;55638;51.122;13.606;2023-01-30T06:42:38;6.78;;;5.72;;
68655;SDS011;55638;51.122;13.606;2023-01-30T06:44:14;6.88;;;5.85;;
68655;SDS011;55638;51.122;13.606;2023-01-30T06:45:46;7.07;;;6.28;;
68655;SDS011;55638;51.122;13.606;2023-01-30T06:47:18;6.72;;;6.00;;
68655;SDS011;55638;51.122;13.606;2023-01-30T06:48:49;7.25;;;6.45;;
68655;SDS011;55638;51.122;13.606;2023-01-30T06:50:25;8.45;;;6.65;;
68655;SDS011;55638;51.122;13.606;2023-01-30T06:51:58;9.15;;;7.13;;
68655;SDS011;55638;51.122;13.606;2023-01-30T06:53:30;8.77;;;6.93;;
68655;SDS011;55638;51.122;13.606;2023-01-30T06:55:02;7.72;;;6.93;;
68655;SDS011;55638;51.122;13.606;2023-01-30T06:56:34;8.98;;;6.90;;
68655;SDS011;55638;51.122;13.606;2023-01-30T06:58:10;7.60;;;6.60;;
68655;SDS011;55638;51.122;13.606;2023-01-30T06:59:43;7.55;;;6.15;;
68655;SDS011;55638;51.122;13.606;2023-01-30T07:01:14;7.53;;;6.45;;
68655;SDS011;55638;51.122;13.606;2023-01-30T07:02:46;7.85;;;6.72;;
68655;SDS011;55638;51.122;13.606;2023-01-30T07:04:21;8.82;;;7.30;;
68655;SDS011;55638;51.122;13.606;2023-01-30T07:05:52;9.02;;;7.00;;
68655;SDS011;55638;51.122;13.606;2023-01-30T07:07:24;8.40;;;7.00;;
68655;SDS011;55638;51.122;13.606;2023-01-30T07:08:56;8.23;;;6.72;;
68655;SDS011;55638;51.122;13.606;2023-01-30T07:10:29;9.13;;;6.75;;
68655;SDS011;55638;51.122;13.606;2023-01-30T07:12:02;7.65;;;6.43;;
68655;SDS011;55638;51.122;13.606;2023-01-30T07:13:34;6.63;;;5.90;;
68655;SDS011;55638;51.122;13.606;2023-01-30T07:15:07;7.13;;;6.00;;
68655;SDS011;55638;51.122;13.606;2023-01-30T07:16:39;6.85;;;5.50;;
68655;SDS011;55638;51.122;13.606;2023-01-30T07:18:11;6.13;;;5.53;;
68655;SDS011;55638;51.122;13.606;2023-01-30T07:19:43;7.10;;;5.82;;
68655;SDS011;55638;51.122;13.606;2023-01-30T07:21:15;6.57;;;5.97;;
68655;SDS011;55638;51.122;13.606;2023-01-30T07:22:49;6.32;;;5.53;;
68655;SDS011;55638;51.122;13.606;2023-01-30T07:24:25;6.47;;;5.35;;
68655;SDS011;55638;51.122;13.606;2023-01-30T07:25:57;6.47;;;5.30;;
68655;SDS011;55638;51.122;13.606;2023-01-30T07:27:29;6.18;;;5.55;;
68655;SDS011;55638;51.122;13.606;2023-01-30T07:29:00;6.40;;;5.50;;
68655;SDS011;55638;51.122;13.606;2023-01-30T07:30:33;5.90;;;5.30;;
68655;SDS011;55638;51.122;13.606;2023-01-30T07:32:07;5.78;;;5.03;;
68655;SDS011;55638;51.122;13.606;2023-01-30T07:33:45;6.43;;;5.38;;
68655;SDS011;55638;51.122;13.606;2023-01-30T07:35:17;6.10;;;5.50;;
68655;SDS011;55638;51.122;13.606;2023-01-30T07:36:49;6.63;;;5.57;;
68655;SDS011;55638;51.122;13.606;2023-01-30T07:38:21;7.03;;;6.15;;
68655;SDS011;55638;51.122;13.606;2023-01-30T07:39:53;6.00;;;5.38;;
68655;SDS011;55638;51.122;13.606;2023-01-30T07:41:25;5.07;;;4.57;;
68655;SDS011;55638;51.122;13.606;2023-01-30T07:42:58;6.07;;;5.45;;
68655;SDS011;55638;51.122;13.606;2023-01-30T07:44:34;6.40;;;5.13;;
68655;SDS011;55638;51.122;13.606;2023-01-30T07:46:07;5.43;;;4.93;;
68655;SDS011;55638;51.122;13.606;2023-01-30T07:47:39;6.15;;;5.15;;
68655;SDS011;55638;51.122;13.606;2023-01-30T07:49:11;6.15;;;5.47;;
68655;SDS011;55638;51.122;13.606;2023-01-30T07:50:43;7.22;;;5.32;;
68655;SDS011;55638;51.122;13.606;2023-01-30T07:52:15;5.72;;;5.05;;
68655;SDS011;55638;51.122;13.606;2023-01-30T07:53:50;6.20;;;5.20;;
68655;SDS011;55638;51.122;13.606;2023-01-30T07:55:22;5.55;;;5.03;;
68655;SDS011;55638;51.122;13.606;2023-01-30T07:56:53;5.70;;;5.00;;
68655;SDS011;55638;51.122;13.606;2023-01-30T07:58:25;6.05;;;4.97;;
68655;SDS011;55638;51.122;13.606;2023-01-30T07:59:59;5.45;;;4.88;;
68655;SDS011;55638;51.122;13.606;2023-01-30T08:01:31;5.75;;;5.10;;
68655;SDS011;55638;51.122;13.606;2023-01-30T08:03:03;5.32;;;4.50;;
68655;SDS011;55638;51.122;13.606;2023-01-30T08:04:35;5.90;;;4.80;;
68655;SDS011;55638;51.122;13.606;2023-01-30T08:06:07;5.18;;;4.68;;
68655;SDS011;55638;51.122;13.606;2023-01-30T08:07:38;5.72;;;5.07;;
68655;SDS011;55638;51.122;13.606;2023-01-30T08:09:11;5.05;;;4.50;;
68655;SDS011;55638;51.122;13.606;2023-01-30T08:10:42;5.30;;;4.75;;
68655;SDS011;55638;51.122;13.606;2023-01-30T08:12:14;5.38;;;4.85;;
68655;SDS011;55638;51.122;13.606;2023-01-30T08:13:46;5.10;;;4.60;;
68655;SDS011;55638;51.122;13.606;2023-01-30T08:15:18;5.10;;;4.57;;
68655;SDS011;55638;51.122;13.606;2023-01-30T08:16:54;4.63;;;4.15;;
68655;SDS011;55638;51.122;13.606;2023-01-30T08:18:27;5.35;;;4.85;;
68655;SDS011;55638;51.122;13.606;2023-01-30T08:19:59;5.03;;;4.55;;
68655;SDS011;55638;51.122;13.606;2023-01-30T08:21:31;4.65;;;4.25;;
68655;SDS011;55638;51.122;13.606;2023-01-30T08:23:03;5.22;;;4.28;;
68655;SDS011;55638;51.122;13.606;2023-01-30T08:24:35;4.60;;;4.20;;
68655;SDS011;55638;51.122;13.606;2023-01-30T08:26:07;4.13;;;3.78;;
68655;SDS011;55638;51.122;13.606;2023-01-30T08:27:39;4.78;;;4.28;;
68655;SDS011;55638;51.122;13.606;2023-01-30T08:29:11;4.63;;;3.88;;
68655;SDS011;55638;51.122;13.606;2023-01-30T08:30:42;4.88;;;4.45;;
68655;SDS011;55638;51.122;13.606;2023-01-30T08:32:17;4.40;;;4.00;;
68655;SDS011;55638;51.122;13.606;2023-01-30T08:33:49;4.78;;;4.20;;
68655;SDS011;55638;51.122;13.606;2023-01-30T08:35:20;4.50;;;4.10;;
68655;SDS011;55638;51.122;13.606;2023-01-30T08:36:52;4.32;;;3.92;;
68655;SDS011;55638;51.122;13.606;2023-01-30T08:38:24;4.10;;;3.70;;
68655;SDS011;55638;51.122;13.606;2023-01-30T08:39:56;4.50;;;4.10;;
68655;SDS011;55638;51.122;13.606;2023-01-30T08:41:28;4.22;;;3.80;;
68655;SDS011;55638;51.122;13.606;2023-01-30T08:43:00;4.13;;;3.67;;
68655;SDS011;55638;51.122;13.606;2023-01-30T08:44:32;4.03;;;3.63;;
68655;SDS011;55638;51.122;13.606;2023-01-30T08:46:03;4.57;;;3.97;;
68655;SDS011;55638;51.122;13.606;2023-01-30T08:47:35;4.47;;;4.07;;
68655;SDS011;55638;51.122;13.606;2023-01-30T08:49:09;3.97;;;3.58;;
68655;SDS011;55638;51.122;13.606;2023-01-30T08:50:41;4.57;;;4.18;;
68655;SDS011;55638;51.122;13.606;2023-01-30T08:52:12;4.53;;;3.88;;
68655;SDS011;55638;51.122;13.606;2023-01-30T08:53:44;3.58;;;3.28;;
68655;SDS011;55638;51.122;13.606;2023-01-30T08:55:16;4.55;;;3.72;;
68655;SDS011;55638;51.122;13.606;2023-01-30T08:56:48;3.80;;;3.42;;
68655;SDS011;55638;51.122;13.606;2023-01-30T08:58:20;3.78;;;3.35;;
68655;SDS011;55638;51.122;13.606;2023-01-30T08:59:52;3.47;;;3.17;;
68655;SDS011;55638;51.122;13.606;2023-01-30T09:01:24;3.72;;;3.42;;
68655;SDS011;55638;51.122;13.606;2023-01-30T09:02:56;3.58;;;3.28;;
68655;SDS011;55638;51.122;13.606;2023-01-30T09:04:29;3.40;;;3.10;;
68655;SDS011;55638;51.122;13.606;2023-01-30T09:06:01;4.40;;;3.30;;
68655;SDS011;55638;51.122;13.606;2023-01-30T09:07:33;3.47;;;3.20;;
68655;SDS011;55638;51.122;13.606;2023-01-30T09:09:05;3.28;;;2.97;;
68655;SDS011;55638;51.122;13.606;2023-01-30T09:10:37;3.08;;;2.88;;
68655;SDS011;55638;51.122;13.606;2023-01-30T09:12:08;4.00;;;3.60;;
68655;SDS011;55638;51.122;13.606;2023-01-30T09:13:40;3.45;;;3.15;;
68655;SDS011;55638;51.122;13.606;2023-01-30T09:15:14;4.13;;;3.15;;
68655;SDS011;55638;51.122;13.606;2023-01-30T09:16:46;3.65;;;3.35;;
68655;SDS011;55638;51.122;13.606;2023-01-30T09:18:19;3.78;;;3.42;;
68655;SDS011;55638;51.122;13.606;2023-01-30T09:19:51;3.20;;;3.00;;
68655;SDS011;55638;51.122;13.606;2023-01-30T09:21:22;3.38;;;3.08;;
68655;SDS011;55638;51.122;13.606;2023-01-30T09:22:54;8.20;;;5.60;;
68655;SDS011;55638;51.122;13.606;2023-01-30T09:24:26;4.65;;;3.92;;
68655;SDS011;55638;51.122;13.606;2023-01-30T09:25:58;4.30;;;3.90;;
68655;SDS011;55638;51.122;13.606;2023-01-30T09:27:31;4.35;;;3.72;;
68655;SDS011;55638;51.122;13.606;2023-01-30T09:29:03;3.30;;;3.00;;
68655;SDS011;55638;51.122;13.606;2023-01-30T09:30:34;4.07;;;3.72;;
68655;SDS011;55638;51.122;13.606;2023-01-30T09:32:06;3.85;;;3.55;;
68655;SDS011;55638;51.122;13.606;2023-01-30T09:33:38;3.20;;;3.00;;
68655;SDS011;55638;51.122;13.606;2023-01-30T09:35:10;3.60;;;3.20;;
68655;SDS011;55638;51.122;13.606;2023-01-30T09:36:42;3.60;;;3.30;;
68655;SDS011;55638;51.122;13.606;2023-01-30T09:38:14;3.25;;;2.95;;
68655;SDS011;55638;51.122;13.606;2023-01-30T09:39:46;4.25;;;3.78;;
68655;SDS011;55638;51.122;13.606;2023-01-30T09:43:31;3.55;;;3.25;;
68655;SDS011;55638;51.122;13.606;2023-01-30T09:45:38;3.38;;;3.10;;
68655;SDS011;55638;51.122;13.606;2023-01-30T09:47:13;2.65;;;2.45;;
68655;SDS011;55638;51.122;13.606;2023-01-30T09:49:14;3.85;;;3.55;;
68655;SDS011;55638;51.122;13.606;2023-01-30T09:54:22;3.10;;;2.90;;